createdAt,value
2019-02-22T00:02:15.249Z,4.55
2019-02-22T00:04:44.699Z,4.48
2019-02-22T00:07:14.486Z,4.43
2019-02-22T00:09:49.501Z,4.43
2019-02-22T00:12:15.533Z,4.51
2019-02-22T00:14:45.162Z,4.45
2019-02-22T00:17:14.822Z,4.45
2019-02-22T00:19:44.488Z,4.42
2019-02-22T00:22:14.226Z,4.50
2019-02-22T00:24:43.901Z,4.50
2019-02-22T00:27:13.540Z,4.54
2019-02-22T00:29:43.493Z,4.46
2019-02-22T00:32:13.159Z,4.44
2019-02-22T00:34:42.854Z,4.42
2019-02-22T00:37:12.547Z,4.42
2019-02-22T00:39:42.153Z,4.33
2019-02-22T00:42:11.808Z,4.21
2019-02-22T00:44:41.370Z,4.20
2019-02-22T00:47:10.916Z,4.22
2019-02-22T00:49:40.563Z,4.23
2019-02-22T00:52:10.407Z,4.17
2019-02-22T00:54:40.014Z,4.18
2019-02-22T00:57:09.596Z,4.13
2019-02-22T00:59:39.483Z,4.09
2019-02-22T01:02:09.076Z,4.21
2019-02-22T01:04:38.771Z,4.21
2019-02-22T01:07:08.346Z,4.20
2019-02-22T01:09:37.880Z,4.22
2019-02-22T01:12:07.439Z,4.29
2019-02-22T01:14:37.200Z,4.26
2019-02-22T01:17:06.803Z,4.28
2019-02-22T01:19:36.444Z,4.26
2019-02-22T01:22:07.802Z,4.17
2019-02-22T01:24:37.441Z,4.14
2019-02-22T01:27:07.240Z,4.11
2019-02-22T01:29:36.860Z,4.14
2019-02-22T01:32:06.657Z,4.08
2019-02-22T01:34:36.418Z,4.05
2019-02-22T01:37:05.958Z,4.05
2019-02-22T01:39:35.675Z,3.92
2019-02-22T01:42:05.483Z,3.92
2019-02-22T01:44:35.070Z,3.93
2019-02-22T01:47:04.711Z,3.98
2019-02-22T01:49:34.388Z,4.00
2019-02-22T01:52:04.248Z,4.05
2019-02-22T01:54:33.878Z,4.19
2019-02-22T01:57:03.341Z,4.19
2019-02-22T01:59:32.968Z,4.18
2019-02-22T02:02:02.653Z,4.24
2019-02-22T02:04:33.727Z,4.20
2019-02-22T02:07:03.530Z,4.10
2019-02-22T02:09:33.261Z,4.22
2019-02-22T02:12:02.980Z,4.22
2019-02-22T02:14:32.602Z,4.22
2019-02-22T02:17:03.892Z,4.22
2019-02-22T02:19:33.590Z,4.18
2019-02-22T02:22:03.176Z,4.15
2019-02-22T02:24:32.963Z,4.15
2019-02-22T02:27:02.680Z,4.09
2019-02-22T02:29:32.489Z,4.17
2019-02-22T02:32:02.190Z,4.13
2019-02-22T02:34:31.820Z,4.16
2019-02-22T02:37:01.681Z,4.14
2019-02-22T02:39:31.319Z,4.14
2019-02-22T02:42:03.373Z,4.20
2019-02-22T02:44:33.139Z,4.22
2019-02-22T02:47:02.756Z,4.19
2019-02-22T02:49:32.387Z,4.22
2019-02-22T02:52:02.100Z,4.13
2019-02-22T02:54:31.696Z,4.19
2019-02-22T02:57:01.207Z,4.28
2019-02-22T02:59:30.881Z,4.29
2019-02-22T03:02:01.564Z,4.24
2019-02-22T03:04:31.274Z,4.32
2019-02-22T03:07:05.950Z,4.35
2019-02-22T03:09:35.655Z,4.44
2019-02-22T03:12:05.333Z,4.47
2019-02-22T03:14:35.161Z,4.47
2019-02-22T03:17:04.848Z,4.52
2019-02-22T03:19:34.512Z,4.59
2019-02-22T03:22:04.044Z,4.50
2019-02-22T03:24:33.738Z,4.57
2019-02-22T03:27:03.408Z,4.59
2019-02-22T03:29:33.119Z,4.72
2019-02-22T03:32:02.704Z,4.74
2019-02-22T03:34:32.464Z,4.74
2019-02-22T03:37:02.195Z,4.70
2019-02-22T03:39:31.770Z,4.65
2019-02-22T03:42:01.542Z,4.62
2019-02-22T03:44:31.173Z,4.64
2019-02-22T03:47:00.853Z,4.72
2019-02-22T03:49:30.594Z,4.69
2019-02-22T03:52:01.992Z,4.71
2019-02-22T03:54:31.588Z,4.75
2019-02-22T03:57:01.351Z,4.69
2019-02-22T03:59:31.203Z,4.57
2019-02-22T04:02:00.846Z,4.64
2019-02-22T04:04:30.623Z,4.73
2019-02-22T04:07:00.293Z,4.84
2019-02-22T04:09:29.837Z,4.75
2019-02-22T04:11:59.515Z,4.71
2019-02-22T04:14:29.124Z,4.78
2019-02-22T04:16:58.729Z,4.77
2019-02-22T04:19:28.478Z,4.53
2019-02-22T04:21:58.100Z,4.53
2019-02-22T04:24:27.884Z,4.56
2019-02-22T04:26:57.624Z,4.63
2019-02-22T04:29:27.447Z,4.66
2019-02-22T04:31:57.070Z,4.66
2019-02-22T04:34:26.752Z,4.67
2019-02-22T04:36:56.461Z,4.79
2019-02-22T04:39:26.090Z,4.89
2019-02-22T04:41:58.327Z,4.89
2019-02-22T04:44:27.827Z,4.89
2019-02-22T04:46:57.516Z,4.96
2019-02-22T04:49:27.148Z,5.05
2019-02-22T04:51:56.716Z,5.12
2019-02-22T04:54:26.521Z,5.10
2019-02-22T04:56:56.108Z,5.17
2019-02-22T04:59:25.743Z,5.21
2019-02-22T05:01:55.432Z,5.25
2019-02-22T05:04:24.966Z,5.22
2019-02-22T05:06:54.663Z,5.25
2019-02-22T05:09:24.346Z,5.23
2019-02-22T05:11:54.178Z,5.31
2019-02-22T05:14:23.707Z,5.26
2019-02-22T05:16:53.508Z,5.07
2019-02-22T05:19:23.257Z,5.16
2019-02-22T05:21:52.992Z,5.24
2019-02-22T05:24:22.545Z,5.35
2019-02-22T05:26:52.296Z,5.47
2019-02-22T05:29:21.825Z,5.55
2019-02-22T05:31:51.702Z,5.59
2019-02-22T05:34:21.316Z,5.63
2019-02-22T05:36:50.932Z,5.69
2019-02-22T05:39:20.518Z,5.67
2019-02-22T05:41:50.288Z,5.69
2019-02-22T05:44:19.717Z,5.73
2019-02-22T05:46:59.959Z,5.85
2019-02-22T05:49:22.694Z,5.95
2019-02-22T05:51:52.497Z,6.00
2019-02-22T05:54:22.310Z,6.04
2019-02-22T05:56:54.708Z,6.09
2019-02-22T05:59:23.084Z,6.08
2019-02-22T06:01:52.706Z,6.22
2019-02-22T06:04:22.372Z,6.28
2019-02-22T06:06:51.912Z,6.29
2019-02-22T06:09:21.576Z,6.33
2019-02-22T06:11:51.299Z,6.35
2019-02-22T06:14:20.899Z,6.44
2019-02-22T06:16:51.883Z,6.47
2019-02-22T06:19:21.510Z,6.43
2019-02-22T06:21:51.135Z,6.36
2019-02-22T06:24:20.772Z,6.33
2019-02-22T06:26:50.356Z,6.19
2019-02-22T06:29:19.931Z,6.17
2019-02-22T06:31:49.594Z,6.13
2019-02-22T06:34:19.481Z,6.19
2019-02-22T06:37:00.774Z,6.20
2019-02-22T06:39:20.570Z,6.32
2019-02-22T06:41:50.295Z,6.34
2019-02-22T06:44:19.887Z,6.64
2019-02-22T06:46:49.478Z,6.77
2019-02-22T06:49:19.052Z,6.73
2019-02-22T06:51:48.701Z,6.77
2019-02-22T06:54:18.561Z,6.84
2019-02-22T06:56:47.983Z,6.89
2019-02-22T06:59:17.806Z,6.84
2019-02-22T07:01:50.041Z,6.84
2019-02-22T07:04:18.951Z,6.93
2019-02-22T07:06:48.583Z,6.88
2019-02-22T07:09:18.317Z,6.86
2019-02-22T07:11:54.554Z,6.96
2019-02-22T07:14:24.190Z,7.07
2019-02-22T07:16:53.994Z,6.97
2019-02-22T07:19:23.879Z,7.02
2019-02-22T07:21:53.593Z,6.97
2019-02-22T07:24:23.234Z,6.99
2019-02-22T07:26:52.733Z,6.99
2019-02-22T07:29:22.402Z,7.01
2019-02-22T07:31:52.062Z,7.01
2019-02-22T07:34:21.941Z,6.93
2019-02-22T07:36:51.548Z,6.89
2019-02-22T07:39:27.885Z,7.01
2019-02-22T07:41:52.687Z,7.12
2019-02-22T07:44:22.419Z,7.04
2019-02-22T07:46:52.050Z,7.14
2019-02-22T07:49:28.565Z,7.06
2019-02-22T07:51:58.158Z,7.18
2019-02-22T07:54:27.785Z,7.14
2019-02-22T07:56:57.415Z,7.12
2019-02-22T07:59:27.104Z,7.08
2019-02-22T08:01:56.858Z,7.12
2019-02-22T08:04:26.791Z,7.12
2019-02-22T08:06:56.459Z,7.12
2019-02-22T08:09:26.056Z,7.12
2019-02-22T08:11:55.866Z,7.17
2019-02-22T08:14:25.534Z,7.12
2019-02-22T08:16:56.477Z,7.02
2019-02-22T08:19:27.745Z,7.07
2019-02-22T08:21:57.363Z,7.21
2019-02-22T08:24:28.382Z,7.32
2019-02-22T08:26:58.100Z,7.40
2019-02-22T08:29:27.992Z,7.37
2019-02-22T08:31:57.820Z,7.43
2019-02-22T08:34:27.616Z,7.40
2019-02-22T08:36:57.376Z,7.52
2019-02-22T08:39:27.105Z,7.69
2019-02-22T08:41:57.802Z,7.89
2019-02-22T08:44:27.562Z,7.89
2019-02-22T08:46:59.600Z,7.98
2019-02-22T08:49:29.084Z,8.08
2019-02-22T08:51:58.788Z,8.10
2019-02-22T08:54:28.438Z,7.95
2019-02-22T08:56:58.057Z,7.90
2019-02-22T09:01:51.988Z,8.35
2019-02-22T09:04:21.614Z,8.39
2019-02-22T09:06:52.468Z,8.56
2019-02-22T09:09:22.128Z,8.47
2019-02-22T09:11:51.763Z,8.50
2019-02-22T09:14:21.594Z,8.62
2019-02-22T09:16:51.174Z,8.58
2019-02-22T09:19:21.005Z,8.49
2019-02-22T09:21:50.845Z,8.54
2019-02-22T09:24:20.543Z,8.57
2019-02-22T09:26:50.143Z,8.60
2019-02-22T09:29:19.881Z,8.65
2019-02-22T09:31:49.547Z,8.59
2019-02-22T09:34:19.204Z,8.72
2019-02-22T09:36:48.936Z,8.64
2019-02-22T09:39:18.827Z,8.61
2019-02-22T09:41:48.458Z,8.68
2019-02-22T09:44:18.064Z,8.74
2019-02-22T09:46:48.062Z,8.99
2019-02-22T09:49:17.676Z,9.05
2019-02-22T09:51:47.167Z,9.16
2019-02-22T09:54:16.760Z,8.82
2019-02-22T09:56:46.418Z,8.20
2019-02-22T09:59:15.977Z,8.28
2019-02-22T10:01:45.832Z,8.30
2019-02-22T10:04:15.435Z,8.47
2019-02-22T10:06:45.252Z,8.52
2019-02-22T10:09:14.894Z,8.71
2019-02-22T10:11:44.357Z,8.72
2019-02-22T10:14:14.126Z,8.77
2019-02-22T10:16:43.959Z,8.76
2019-02-22T10:19:13.933Z,8.74
2019-02-22T10:21:43.722Z,8.51
2019-02-22T10:24:13.381Z,8.57
2019-02-22T10:26:42.959Z,8.70
2019-02-22T10:29:12.737Z,8.66
2019-02-22T10:31:42.373Z,8.80
2019-02-22T10:34:11.936Z,8.95
2019-02-22T10:36:45.171Z,9.05
2019-02-22T10:39:13.083Z,9.04
2019-02-22T10:41:42.766Z,9.09
2019-02-22T10:44:17.799Z,9.15
2019-02-22T10:46:43.706Z,9.23
2019-02-22T10:49:14.744Z,9.25
2019-02-22T10:51:44.412Z,9.33
2019-02-22T10:54:14.155Z,9.35
2019-02-22T10:56:44.032Z,9.37
2019-02-22T10:59:15.437Z,9.19
2019-02-22T11:01:45.190Z,9.23
2019-02-22T11:04:14.779Z,9.29
2019-02-22T11:06:46.838Z,9.28
2019-02-22T11:09:18.030Z,9.39
2019-02-22T11:11:48.805Z,9.56
2019-02-22T11:14:28.448Z,9.68
2019-02-22T11:16:49.628Z,9.58
2019-02-22T11:19:19.260Z,9.58
2019-02-22T11:21:48.876Z,9.68
2019-02-22T11:24:19.987Z,9.94
2019-02-22T11:26:49.767Z,9.98
2019-02-22T11:29:19.290Z,10.08
2019-02-22T11:31:48.881Z,10.12
2019-02-22T11:34:18.496Z,10.16
2019-02-22T11:36:48.087Z,10.04
2019-02-22T11:39:17.883Z,9.95
2019-02-22T11:41:48.965Z,9.96
2019-02-22T11:44:20.144Z,9.87
2019-02-22T11:46:51.035Z,10.04
2019-02-22T11:49:21.305Z,9.94
2019-02-22T11:51:51.451Z,10.07
2019-02-22T11:54:21.808Z,10.30
2019-02-22T11:56:51.562Z,10.50
2019-02-22T11:59:21.780Z,10.28
2019-02-22T12:01:52.273Z,10.40
2019-02-22T12:04:22.152Z,10.31
2019-02-22T12:06:53.588Z,10.34
2019-02-22T12:09:23.268Z,10.23
2019-02-22T12:11:54.238Z,10.30
2019-02-22T12:14:24.563Z,10.41
2019-02-22T12:16:54.633Z,10.29
2019-02-22T12:19:24.952Z,10.39
2019-02-22T12:21:56.546Z,10.40
2019-02-22T12:24:27.069Z,10.58
2019-02-22T12:26:57.879Z,10.42
2019-02-22T12:29:28.032Z,10.27
2019-02-22T12:31:59.451Z,10.39
2019-02-22T12:34:30.805Z,10.55
2019-02-22T12:37:01.657Z,10.37
2019-02-22T12:39:32.254Z,10.51
2019-02-22T12:42:02.879Z,10.60
2019-02-22T12:44:33.279Z,10.74
2019-02-22T12:47:02.883Z,10.62
2019-02-22T12:49:33.933Z,10.44
2019-02-22T12:52:04.157Z,10.55
2019-02-22T12:54:35.739Z,10.51
2019-02-22T12:57:06.295Z,10.21
2019-02-22T12:59:37.087Z,10.11
2019-02-22T13:02:08.211Z,10.01
2019-02-22T13:04:37.789Z,9.89
2019-02-22T13:07:09.804Z,9.76
2019-02-22T13:09:41.161Z,9.54
2019-02-22T13:12:14.243Z,9.47
2019-02-22T13:14:44.369Z,9.47
2019-02-22T13:17:14.680Z,9.29
2019-02-22T13:19:44.855Z,9.27
2019-02-22T13:22:15.531Z,9.46
2019-02-22T13:24:45.195Z,9.30
2019-02-22T13:27:15.540Z,9.23
2019-02-22T13:29:45.846Z,9.33
2019-02-22T13:32:15.904Z,9.26
2019-02-22T13:34:46.159Z,9.19
2019-02-22T13:37:16.262Z,9.32
2019-02-22T13:39:48.684Z,9.26
2019-02-22T13:42:19.200Z,9.10
2019-02-22T13:44:49.338Z,9.24
2019-02-22T13:47:19.399Z,9.17
2019-02-22T13:49:49.791Z,9.00
2019-02-22T13:52:20.323Z,9.07
2019-02-22T13:54:52.788Z,9.08
2019-02-22T13:57:23.173Z,9.15
2019-02-22T13:59:52.860Z,8.96
2019-02-22T14:02:25.544Z,9.20
2019-02-22T14:04:55.113Z,9.17
2019-02-22T14:07:24.953Z,9.23
2019-02-22T14:09:54.618Z,9.19
2019-02-22T14:12:24.334Z,9.21
2019-02-22T14:14:53.970Z,9.27
2019-02-22T14:17:23.708Z,9.12
2019-02-22T14:19:53.219Z,9.01
2019-02-22T14:22:22.948Z,9.02
2019-02-22T14:24:52.649Z,8.99
2019-02-22T14:27:22.307Z,8.91
2019-02-22T14:29:51.940Z,8.97
2019-02-22T14:32:21.530Z,9.06
2019-02-22T14:34:51.134Z,9.03
2019-02-22T14:37:21.016Z,9.02
2019-02-22T14:40:01.053Z,9.10
2019-02-22T14:42:22.296Z,8.96
2019-02-22T14:44:52.123Z,8.83
2019-02-22T14:47:21.943Z,8.82
2019-02-22T14:49:51.687Z,8.80
2019-02-22T14:52:21.303Z,8.81
2019-02-22T14:54:50.950Z,8.77
2019-02-22T14:57:20.554Z,8.79
2019-02-22T14:59:51.771Z,8.80
2019-02-22T15:02:21.400Z,8.86
2019-02-22T15:04:51.141Z,8.87
2019-02-22T15:07:20.789Z,8.90
2019-02-22T15:09:50.383Z,8.80
2019-02-22T15:12:20.160Z,8.56
2019-02-22T15:14:49.787Z,8.52
2019-02-22T15:17:31.493Z,8.18
2019-02-22T15:20:01.061Z,8.18
2019-02-22T15:22:30.795Z,8.12
2019-02-22T15:25:00.357Z,8.17
2019-02-22T15:27:30.075Z,8.16
2019-02-22T15:30:00.868Z,8.07
2019-02-22T15:32:30.594Z,8.01
2019-02-22T15:35:00.329Z,8.00
2019-02-22T15:37:29.871Z,7.98
2019-02-22T15:40:00.699Z,7.97
2019-02-22T15:42:30.349Z,7.90
2019-02-22T15:45:01.786Z,7.78
2019-02-22T15:47:31.472Z,7.78
2019-02-22T15:50:02.097Z,7.83
2019-02-22T15:52:31.847Z,7.58
2019-02-22T15:55:01.591Z,7.60
2019-02-22T15:57:31.329Z,7.57
2019-02-22T16:00:01.213Z,7.42
2019-02-22T16:02:30.995Z,7.42
2019-02-22T16:05:11.688Z,7.49
2019-02-22T16:07:44.603Z,7.49
2019-02-22T16:10:15.974Z,7.47
2019-02-22T16:12:45.888Z,7.45
2019-02-22T16:15:16.798Z,7.53
2019-02-22T16:17:46.376Z,7.55
2019-02-22T16:20:16.143Z,7.41
2019-02-22T16:22:45.772Z,7.37
2019-02-22T16:25:19.731Z,7.37
2019-02-22T16:27:47.095Z,7.34
2019-02-22T16:30:18.837Z,7.35
2019-02-22T16:32:50.104Z,7.25
2019-02-22T16:35:19.729Z,7.20
2019-02-22T16:37:49.359Z,7.35
2019-02-22T16:40:21.649Z,7.35
2019-02-22T16:42:51.358Z,7.33
2019-02-22T16:45:21.092Z,7.41
2019-02-22T16:47:53.620Z,7.34
2019-02-22T16:50:25.474Z,7.30
2019-02-22T16:52:55.232Z,7.36
2019-02-22T16:55:25.157Z,7.28
2019-02-22T16:57:54.939Z,7.28
2019-02-22T17:00:24.893Z,7.37
2019-02-22T17:02:54.530Z,7.35
2019-02-22T17:05:24.310Z,7.28
2019-02-22T17:07:53.837Z,7.27
2019-02-22T17:10:23.382Z,7.28
2019-02-22T17:12:53.159Z,7.21
2019-02-22T17:15:24.461Z,7.18
2019-02-22T17:17:54.163Z,7.26
2019-02-22T17:20:25.730Z,7.33
2019-02-22T17:22:55.389Z,7.26
2019-02-22T17:25:25.018Z,7.34
2019-02-22T17:27:54.760Z,7.33
2019-02-22T17:30:24.569Z,7.26
2019-02-22T17:32:54.095Z,7.15
2019-02-22T17:35:23.874Z,7.25
2019-02-22T17:37:53.645Z,7.21
2019-02-22T17:40:23.275Z,7.18
2019-02-22T17:42:54.080Z,7.05
2019-02-22T17:45:23.793Z,7.00
2019-02-22T17:47:53.544Z,7.02
2019-02-22T17:50:23.307Z,6.91
2019-02-22T17:52:52.900Z,6.98
2019-02-22T17:55:22.571Z,7.00
2019-02-22T17:57:53.358Z,6.90
2019-02-22T18:00:23.595Z,6.89
2019-02-22T18:02:54.411Z,6.85
2019-02-22T18:05:25.046Z,6.82
2019-02-22T18:07:54.785Z,6.74
2019-02-22T18:10:24.496Z,6.77
2019-02-22T18:12:54.400Z,6.67
2019-02-22T18:15:26.233Z,6.62
2019-02-22T18:17:58.093Z,6.59
2019-02-22T18:20:27.937Z,6.55
2019-02-22T18:22:57.492Z,6.49
2019-02-22T18:25:27.294Z,6.47
2019-02-22T18:27:57.196Z,6.42
2019-02-22T18:30:26.785Z,6.48
2019-02-22T18:32:56.461Z,6.57
2019-02-22T18:35:26.186Z,6.66
2019-02-22T18:37:56.099Z,6.63
2019-02-22T18:40:26.006Z,6.65
2019-02-22T18:42:55.780Z,6.69
2019-02-22T18:45:25.624Z,6.72
2019-02-22T18:47:55.399Z,6.74
2019-02-22T18:50:25.003Z,6.77
2019-02-22T18:52:54.623Z,6.84
2019-02-22T18:55:24.378Z,6.78
2019-02-22T18:57:54.140Z,6.78
2019-02-22T19:00:24.042Z,6.82
2019-02-22T19:02:53.647Z,6.88
2019-02-22T19:05:23.308Z,6.81
2019-02-22T19:07:52.810Z,6.80
2019-02-22T19:10:22.334Z,6.85
2019-02-22T19:12:53.447Z,6.82
2019-02-22T19:15:23.192Z,6.89
2019-02-22T19:17:53.021Z,6.90
2019-02-22T19:20:24.459Z,6.89
2019-02-22T19:22:54.039Z,6.83
2019-02-22T19:25:23.766Z,6.82
2019-02-22T19:27:53.443Z,6.80
2019-02-22T19:30:23.226Z,6.74
2019-02-22T19:32:52.846Z,6.78
2019-02-22T19:35:22.633Z,6.75
2019-02-22T19:37:52.431Z,6.68
2019-02-22T19:40:22.363Z,6.70
2019-02-22T19:42:52.167Z,6.62
2019-02-22T19:45:21.888Z,6.56
2019-02-22T19:47:51.592Z,6.45
2019-02-22T19:50:21.314Z,6.48
2019-02-22T19:52:51.022Z,6.41
2019-02-22T19:55:20.926Z,6.45
2019-02-22T19:57:50.603Z,6.47
2019-02-22T20:00:20.495Z,6.47
2019-02-22T20:02:50.164Z,6.54
2019-02-22T20:05:19.778Z,6.54
2019-02-22T20:07:49.424Z,6.52
2019-02-22T20:10:19.351Z,6.46
2019-02-22T20:12:49.211Z,6.43
2019-02-22T20:15:19.100Z,6.43
2019-02-22T20:17:54.316Z,6.52
2019-02-22T20:20:20.020Z,6.47
2019-02-22T20:22:49.661Z,6.46
2019-02-22T20:25:19.227Z,6.32
2019-02-22T20:27:48.860Z,6.36
2019-02-22T20:30:18.985Z,6.36
2019-02-22T20:32:48.601Z,6.36
2019-02-22T20:35:19.830Z,6.30
2019-02-22T20:37:53.025Z,6.27
2019-02-22T20:40:21.039Z,6.34
2019-02-22T20:42:53.679Z,6.29
2019-02-22T20:45:23.356Z,6.45
2019-02-22T20:48:04.244Z,6.43
2019-02-22T20:50:24.481Z,6.43
2019-02-22T20:52:54.303Z,6.40
2019-02-22T20:55:24.024Z,6.38
2019-02-22T20:57:53.919Z,6.38
2019-02-22T21:00:23.706Z,6.33
2019-02-22T21:02:53.323Z,6.27
2019-02-22T21:05:23.118Z,6.29
2019-02-22T21:07:52.622Z,6.27
2019-02-22T21:10:22.919Z,6.29
2019-02-22T21:12:56.132Z,6.21
2019-02-22T21:15:27.098Z,6.28
2019-02-22T21:17:56.697Z,6.19
2019-02-22T21:20:26.365Z,6.23
2019-02-22T21:22:56.025Z,6.26
2019-02-22T21:25:25.881Z,6.32
2019-02-22T21:27:55.434Z,6.29
2019-02-22T21:30:25.079Z,6.32
2019-02-22T21:32:54.646Z,6.42
2019-02-22T21:35:24.210Z,6.34
2019-02-22T21:37:53.847Z,6.24
2019-02-22T21:40:23.568Z,6.26
2019-02-22T21:42:53.316Z,6.35
2019-02-22T21:45:25.027Z,6.33
2019-02-22T21:47:55.782Z,6.38
2019-02-22T21:50:25.439Z,6.47
2019-02-22T21:52:54.998Z,6.33
2019-02-22T21:55:24.580Z,6.34
2019-02-22T21:57:54.624Z,6.40
2019-02-22T22:00:24.472Z,6.38
2019-02-22T22:02:54.431Z,6.40
2019-02-22T22:05:23.932Z,6.42
2019-02-22T22:07:53.635Z,6.52
2019-02-22T22:10:23.213Z,6.37
2019-02-22T22:12:52.880Z,6.42
2019-02-22T22:15:22.630Z,6.42
2019-02-22T22:17:54.508Z,6.36
2019-02-22T22:20:24.199Z,6.30
2019-02-22T22:22:53.739Z,6.22
2019-02-22T22:25:24.512Z,6.24
2019-02-22T22:27:54.283Z,6.23
2019-02-22T22:30:23.941Z,6.34
2019-02-22T22:32:53.808Z,6.35
2019-02-22T22:35:23.748Z,6.23
2019-02-22T22:37:53.405Z,6.16
2019-02-22T22:40:23.011Z,5.94
2019-02-22T22:42:52.688Z,5.91
2019-02-22T22:45:22.399Z,5.77
2019-02-22T22:47:52.083Z,5.68
2019-02-22T22:50:21.877Z,5.68
2019-02-22T22:52:51.654Z,5.51
2019-02-22T22:55:21.391Z,5.52
2019-02-22T22:57:51.141Z,5.48
2019-02-22T23:00:59.005Z,5.24
2019-02-22T23:03:28.823Z,5.11
2019-02-22T23:05:58.701Z,5.10
2019-02-22T23:08:28.425Z,5.10
2019-02-22T23:10:58.120Z,4.90
2019-02-22T23:13:27.978Z,4.33
2019-02-22T23:15:58.610Z,4.07
2019-02-22T23:18:28.239Z,4.07
2019-02-22T23:20:58.008Z,3.63
2019-02-22T23:23:27.516Z,3.37
2019-02-22T23:25:57.132Z,3.37
2019-02-22T23:28:28.198Z,3.16
2019-02-22T23:30:57.908Z,2.87
2019-02-22T23:33:27.500Z,2.84
2019-02-22T23:35:57.313Z,2.94
2019-02-22T23:38:27.024Z,2.94
2019-02-22T23:40:56.780Z,2.79
2019-02-22T23:43:26.606Z,2.57
2019-02-22T23:45:58.108Z,2.39
2019-02-22T23:48:27.846Z,2.25
2019-02-22T23:50:57.590Z,2.28
2019-02-22T23:53:27.357Z,2.07
2019-02-22T23:55:58.109Z,1.86
2019-02-22T23:58:27.680Z,1.81
